createdAt,value
2023-03-05T00:02:12.782Z,-0.82
2023-03-05T00:04:39.443Z,-0.83
2023-03-05T00:07:11.550Z,-0.84
2023-03-05T00:09:42.850Z,-0.85
2023-03-05T00:12:11.861Z,-0.88
2023-03-05T00:14:40.636Z,-0.89
2023-03-05T00:17:07.098Z,-0.92
2023-03-05T00:19:33.707Z,-0.94
2023-03-05T00:22:02.419Z,-0.96
2023-03-05T00:24:31.115Z,-0.99
2023-03-05T00:26:59.807Z,-1.00
2023-03-05T00:29:31.815Z,-1.02
2023-03-05T00:31:58.320Z,-1.02
2023-03-05T00:34:27.889Z,-1.04
2023-03-05T00:36:59.140Z,-1.05
2023-03-05T00:39:28.399Z,-1.06
2023-03-05T00:41:57.315Z,-1.07
2023-03-05T00:44:24.084Z,-1.08
2023-03-05T00:46:57.684Z,-1.10
2023-03-05T00:49:27.141Z,-1.11
2023-03-05T00:51:53.500Z,-1.12
2023-03-05T00:54:21.225Z,-1.12
2023-03-05T00:56:50.193Z,-1.13
2023-03-05T00:59:16.604Z,-1.16
2023-03-05T01:01:45.434Z,-1.18
2023-03-05T01:04:19.302Z,-1.21
2023-03-05T01:06:48.012Z,-1.22
2023-03-05T01:43:00.643Z,-1.40
2023-03-05T01:45:35.463Z,-1.45
2023-03-05T01:48:04.759Z,-1.47
2023-03-05T01:50:34.304Z,-1.49
2023-03-05T01:53:06.600Z,-1.51
2023-03-05T01:55:36.581Z,-1.52
2023-03-05T01:58:07.583Z,-1.53
2023-03-05T02:00:38.981Z,-1.55
2023-03-05T02:03:11.764Z,-1.56
2023-03-05T02:05:43.725Z,-1.59
2023-03-05T02:08:13.409Z,-1.58
2023-03-05T02:10:49.473Z,-1.61
2023-03-05T02:13:27.160Z,-1.61
2023-03-05T02:15:57.383Z,-1.63
2023-03-05T02:18:27.866Z,-1.64
2023-03-05T02:20:59.781Z,-1.65
2023-03-05T02:23:36.671Z,-1.66
2023-03-05T02:26:07.984Z,-1.66
2023-03-05T02:28:44.751Z,-1.67
2023-03-05T02:31:23.694Z,-1.68
2023-03-05T02:33:55.640Z,-1.69
2023-03-05T02:36:24.906Z,-1.72
2023-03-05T02:38:56.326Z,-1.75
2023-03-05T02:41:25.713Z,-1.76
2023-03-05T02:43:58.325Z,-1.77
2023-03-05T02:46:27.541Z,-1.77
2023-03-05T02:48:53.961Z,-1.81
2023-03-05T02:51:22.787Z,-1.86
2023-03-05T02:53:57.557Z,-1.88
2023-03-05T02:56:26.626Z,-1.84
2023-03-05T02:58:53.680Z,-1.84
2023-03-05T03:01:22.457Z,-1.86
2023-03-05T03:03:49.301Z,-1.88
2023-03-05T03:06:18.008Z,-1.89
2023-03-05T03:08:49.629Z,-1.90
2023-03-05T03:11:18.472Z,-1.91
2023-03-05T03:13:45.008Z,-1.92
2023-03-05T03:16:13.722Z,-1.93
2023-03-05T03:18:41.012Z,-1.94
2023-03-05T03:21:19.244Z,-1.94
2023-03-05T03:23:45.772Z,-1.96
2023-03-05T03:26:14.928Z,-1.98
2023-03-05T03:28:44.399Z,-2.00
2023-03-05T03:31:11.408Z,-2.02
2023-03-05T03:33:40.479Z,-2.04
2023-03-05T03:36:07.459Z,-2.04
2023-03-05T03:38:33.935Z,-2.04
2023-03-05T03:41:04.550Z,-2.05
2023-03-05T03:43:30.916Z,-2.07
2023-03-05T03:45:59.908Z,-2.10
2023-03-05T03:48:30.829Z,-2.08
2023-03-05T03:50:57.169Z,-2.09
2023-03-05T03:53:28.613Z,-2.10
2023-03-05T03:56:01.136Z,-2.11
2023-03-05T03:58:27.597Z,-2.11
2023-03-05T04:00:56.962Z,-2.13
2023-03-05T04:03:23.759Z,-2.14
2023-03-05T04:05:54.672Z,-2.15
2023-03-05T04:08:21.072Z,-2.17
2023-03-05T04:10:55.135Z,-2.18
2023-03-05T04:13:23.881Z,-2.24
2023-03-05T04:15:58.047Z,-2.28
2023-03-05T04:18:24.620Z,-2.30
2023-03-05T04:20:54.598Z,-2.23
2023-03-05T04:23:23.480Z,-2.23
2023-03-05T04:25:50.017Z,-2.25
2023-03-05T04:28:21.131Z,-2.27
2023-03-05T04:30:47.985Z,-2.28
2023-03-05T04:33:17.533Z,-2.26
2023-03-05T04:35:46.687Z,-2.26
2023-03-05T04:38:13.116Z,-2.25
2023-03-05T04:40:42.331Z,-2.24
2023-03-05T04:43:08.919Z,-2.26
2023-03-05T04:45:37.656Z,-2.25
2023-03-05T04:48:04.649Z,-2.26
2023-03-05T04:50:33.118Z,-2.25
2023-03-05T04:53:02.690Z,-2.24
2023-03-05T04:55:29.463Z,-2.23
2023-03-05T04:57:56.105Z,-2.23
2023-03-05T05:00:23.112Z,-2.21
2023-03-05T05:02:51.270Z,-2.20
2023-03-05T05:05:21.322Z,-2.20
2023-03-05T05:07:52.984Z,-2.19
2023-03-05T05:10:26.579Z,-2.20
2023-03-05T05:12:56.166Z,-2.20
2023-03-05T05:15:27.608Z,-2.19
2023-03-05T05:17:54.004Z,-2.19
2023-03-05T05:20:23.380Z,-2.19
2023-03-05T05:22:49.913Z,-2.20
2023-03-05T05:25:19.199Z,-2.20
2023-03-05T05:27:48.183Z,-2.20
2023-03-05T05:30:19.324Z,-2.19
2023-03-05T05:32:50.148Z,-2.17
2023-03-05T05:35:21.885Z,-2.14
2023-03-05T05:37:53.049Z,-2.12
2023-03-05T05:40:22.697Z,-2.13
2023-03-05T05:42:51.605Z,-2.09
2023-03-05T05:45:22.449Z,-2.09
2023-03-05T05:47:54.084Z,-2.10
2023-03-05T05:50:26.605Z,-2.10
2023-03-05T05:52:55.630Z,-2.09
2023-03-05T05:55:26.672Z,-2.08
2023-03-05T05:57:53.204Z,-2.07
2023-03-05T06:00:22.478Z,-2.06
2023-03-05T06:02:52.095Z,-2.04
2023-03-05T06:05:18.885Z,-1.99
2023-03-05T06:07:50.380Z,-1.97
2023-03-05T06:10:19.198Z,-1.96
2023-03-05T06:12:49.793Z,-1.97
2023-03-05T06:15:19.080Z,-1.95
2023-03-05T06:17:48.409Z,-1.96
2023-03-05T06:20:15.263Z,-2.01
2023-03-05T06:22:41.708Z,-1.97
2023-03-05T06:25:11.260Z,-1.86
2023-03-05T06:27:40.440Z,-1.80
2023-03-05T06:30:10.913Z,-1.79
2023-03-05T06:32:37.468Z,-1.75
2023-03-05T06:35:06.305Z,-1.71
2023-03-05T06:37:37.302Z,-1.69
2023-03-05T06:40:09.414Z,-1.68
2023-03-05T06:42:38.445Z,-1.66
2023-03-05T06:45:05.513Z,-1.64
2023-03-05T06:47:32.033Z,-1.62
2023-03-05T06:50:01.029Z,-1.60
2023-03-05T06:52:29.986Z,-1.58
2023-03-05T06:54:56.682Z,-1.55
2023-03-05T06:57:28.014Z,-1.52
2023-03-05T06:59:54.861Z,-1.49
2023-03-05T07:02:21.304Z,-1.50
2023-03-05T07:04:47.870Z,-1.48
2023-03-05T07:07:14.948Z,-1.45
2023-03-05T07:09:44.240Z,-1.43
2023-03-05T07:12:17.692Z,-1.40
2023-03-05T07:14:44.153Z,-1.36
2023-03-05T07:17:14.623Z,-1.36
2023-03-05T07:19:43.955Z,-1.33
2023-03-05T07:22:10.446Z,-1.32
2023-03-05T07:24:40.581Z,-1.30
2023-03-05T07:27:12.008Z,-1.27
2023-03-05T07:29:38.695Z,-1.24
2023-03-05T07:32:07.820Z,-1.22
2023-03-05T07:34:37.726Z,-1.19
2023-03-05T07:37:05.821Z,-1.18
2023-03-05T07:39:34.380Z,-1.15
2023-03-05T07:42:05.489Z,-1.11
2023-03-05T07:44:38.363Z,-1.09
2023-03-05T07:47:05.363Z,-1.07
2023-03-05T07:49:38.594Z,-1.04
2023-03-05T07:52:12.314Z,-1.02
2023-03-05T07:54:44.309Z,-0.99
2023-03-05T07:57:12.775Z,-0.95
2023-03-05T07:59:42.420Z,-0.93
2023-03-05T08:02:15.891Z,-0.93
2023-03-05T08:04:47.281Z,-0.91
2023-03-05T08:07:17.876Z,-0.90
2023-03-05T08:09:46.560Z,-0.90
2023-03-05T08:12:18.365Z,-0.87
2023-03-05T08:14:44.935Z,-0.87
2023-03-05T08:17:15.729Z,-0.85
2023-03-05T08:19:44.569Z,-0.83
2023-03-05T08:22:16.792Z,-0.79
2023-03-05T08:24:50.246Z,-0.76
2023-03-05T08:27:19.113Z,-0.74
2023-03-05T08:29:45.644Z,-0.72
2023-03-05T08:32:12.394Z,-0.72
2023-03-05T08:34:41.337Z,-0.69
2023-03-05T08:37:10.320Z,-0.67
2023-03-05T08:39:36.888Z,-0.64
2023-03-05T08:42:04.006Z,-0.61
2023-03-05T08:44:35.545Z,-0.58
2023-03-05T08:47:06.825Z,-0.57
2023-03-05T08:49:33.236Z,-0.54
2023-03-05T08:51:59.873Z,-0.51
2023-03-05T08:54:28.882Z,-0.50
2023-03-05T08:56:55.614Z,-0.49
2023-03-05T08:59:27.345Z,-0.46
2023-03-05T09:02:00.398Z,-0.47
2023-03-05T09:04:32.558Z,-0.46
2023-03-05T09:07:04.988Z,-0.44
2023-03-05T09:09:32.471Z,-0.42
2023-03-05T09:12:01.508Z,-0.43
2023-03-05T09:14:33.560Z,-0.44
2023-03-05T09:17:04.191Z,-0.43
2023-03-05T09:19:35.841Z,-0.43
2023-03-05T09:22:04.893Z,-0.41
2023-03-05T09:24:36.465Z,-0.40
2023-03-05T09:27:04.875Z,-0.38
2023-03-05T09:29:34.302Z,-0.40
2023-03-05T09:32:03.343Z,-0.41
2023-03-05T09:34:30.330Z,-0.40
2023-03-05T09:36:56.964Z,-0.37
2023-03-05T09:39:28.143Z,-0.37
2023-03-05T09:42:00.567Z,-0.35
2023-03-05T09:44:48.509Z,-0.34
2023-03-05T09:47:24.317Z,-0.31
2023-03-05T09:50:20.500Z,-0.27
2023-03-05T09:52:55.115Z,-0.24
2023-03-05T09:55:36.363Z,-0.25
2023-03-05T09:58:09.668Z,-0.20
2023-03-05T10:00:45.933Z,-0.17
2023-03-05T10:03:19.171Z,-0.20
2023-03-05T10:06:03.780Z,-0.19
2023-03-05T10:08:52.518Z,-0.18
2023-03-05T10:11:52.765Z,-0.18
2023-03-05T10:14:32.689Z,-0.18
2023-03-05T10:17:47.372Z,-0.16
2023-03-05T10:20:38.521Z,-0.16
2023-03-05T10:23:08.545Z,-0.15
2023-03-05T10:26:16.846Z,-0.15
2023-03-05T10:29:02.702Z,-0.12
2023-03-05T10:32:03.025Z,-0.12
2023-03-05T10:34:35.087Z,-0.15
2023-03-05T10:37:12.194Z,-0.14
2023-03-05T10:40:00.904Z,-0.14
2023-03-05T10:42:39.539Z,-0.15
2023-03-05T10:45:31.019Z,-0.18
2023-03-05T10:48:40.264Z,-0.17
2023-03-05T10:51:25.253Z,-0.18
2023-03-05T10:54:11.018Z,-0.19
2023-03-05T10:56:42.017Z,-0.18
2023-03-05T10:59:14.408Z,-0.19
2023-03-05T11:02:01.506Z,-0.18
2023-03-05T11:04:35.988Z,-0.18
2023-03-05T11:07:32.293Z,-0.17
2023-03-05T11:10:17.508Z,-0.14
2023-03-05T11:12:47.271Z,-0.14
2023-03-05T11:15:13.631Z,-0.15
2023-03-05T11:18:02.381Z,-0.13
2023-03-05T11:20:34.722Z,-0.12
2023-03-05T11:23:12.596Z,-0.12
2023-03-05T11:25:57.476Z,-0.14
2023-03-05T11:28:38.642Z,-0.15
2023-03-05T11:31:19.110Z,-0.18
2023-03-05T11:34:07.774Z,-0.18
2023-03-05T11:36:38.652Z,-0.17
2023-03-05T11:39:05.270Z,-0.19
2023-03-05T11:41:38.390Z,-0.16
2023-03-05T11:44:30.274Z,-0.11
2023-03-05T11:47:04.512Z,-0.09
2023-03-05T11:49:41.129Z,-0.12
2023-03-05T11:52:21.353Z,-0.17
2023-03-05T11:55:03.894Z,-0.20
2023-03-05T11:57:48.241Z,-0.24
2023-03-05T12:00:18.610Z,-0.25
2023-03-05T12:02:49.861Z,-0.29
2023-03-05T12:05:16.688Z,-0.26
2023-03-05T12:07:51.356Z,-0.29
2023-03-05T12:10:24.966Z,-0.29
2023-03-05T12:13:11.125Z,-0.25
2023-03-05T12:15:46.828Z,-0.24
2023-03-05T12:18:19.034Z,-0.24
2023-03-05T12:21:14.929Z,-0.25
2023-03-05T12:23:48.990Z,-0.29
2023-03-05T12:26:17.757Z,-0.30
2023-03-05T12:28:57.383Z,-0.33
2023-03-05T12:31:45.199Z,-0.34
2023-03-05T12:34:37.814Z,-0.37
2023-03-05T12:37:27.320Z,-0.34
2023-03-05T12:40:07.781Z,-0.34
2023-03-05T12:42:34.851Z,-0.35
2023-03-05T12:45:18.556Z,-0.35
2023-03-05T12:48:11.948Z,-0.30
2023-03-05T12:50:42.458Z,-0.28
2023-03-05T12:53:15.600Z,-0.28
2023-03-05T12:55:45.218Z,-0.29
2023-03-05T12:58:19.821Z,-0.30
2023-03-05T13:00:51.642Z,-0.26
2023-03-05T13:03:27.049Z,-0.25
2023-03-05T13:05:58.042Z,-0.25
2023-03-05T13:08:34.831Z,-0.25
2023-03-05T15:17:55.455Z,-0.26
2023-03-05T15:20:27.590Z,-0.30
2023-03-05T15:22:54.461Z,-0.31
2023-03-05T15:25:26.041Z,-0.35
2023-03-05T15:27:52.465Z,-0.35
2023-03-05T15:30:30.709Z,-0.33
2023-03-05T15:33:04.640Z,-0.33
2023-03-05T15:35:37.565Z,-0.34
2023-03-05T15:38:04.489Z,-0.38
2023-03-05T15:40:34.972Z,-0.37
2023-03-05T15:43:03.388Z,-0.36
2023-03-05T15:45:30.826Z,-0.38
2023-03-05T15:48:02.377Z,-0.35
2023-03-05T15:50:31.901Z,-0.33
2023-03-05T15:53:03.998Z,-0.36
2023-03-05T15:55:37.009Z,-0.37
2023-03-05T16:00:39.708Z,-0.36
2023-03-05T16:03:06.570Z,-0.35
2023-03-05T16:05:35.178Z,-0.31
2023-03-05T16:08:06.890Z,-0.33
2023-03-05T16:10:35.941Z,-0.34
2023-03-05T16:13:11.904Z,-0.29
2023-03-05T16:15:40.985Z,-0.26
2023-03-05T16:18:15.346Z,-0.26
2023-03-05T16:20:45.422Z,-0.28
2023-03-05T16:23:17.472Z,-0.29
2023-03-05T16:25:48.228Z,-0.29
2023-03-05T16:28:17.231Z,-0.30
2023-03-05T16:30:46.034Z,-0.30
2023-03-05T16:33:12.804Z,-0.31
2023-03-05T16:35:44.251Z,-0.32
2023-03-05T16:38:14.684Z,-0.30
2023-03-05T16:41:06.731Z,-0.31
2023-03-05T16:43:28.607Z,-0.33
2023-03-05T16:45:57.167Z,-0.33
2023-03-05T16:48:23.909Z,-0.36
2023-03-05T16:50:50.628Z,-0.36
2023-03-05T16:53:23.441Z,-0.37
2023-03-05T16:56:02.553Z,-0.38
2023-03-05T16:58:31.456Z,-0.35
2023-03-05T17:01:01.109Z,-0.35
2023-03-05T17:03:38.325Z,-0.36
2023-03-05T17:06:10.354Z,-0.36
2023-03-05T17:08:37.330Z,-0.37
2023-03-05T17:11:04.053Z,-0.39
2023-03-05T17:13:33.331Z,-0.42
2023-03-05T17:15:59.953Z,-0.44
2023-03-05T17:18:29.353Z,-0.45
2023-03-05T17:20:58.578Z,-0.46
2023-03-05T17:23:25.458Z,-0.48
2023-03-05T17:25:57.976Z,-0.51
2023-03-05T17:28:26.972Z,-0.55
2023-03-05T17:31:00.625Z,-0.57
2023-03-05T17:33:28.251Z,-0.60
2023-03-05T17:35:54.995Z,-0.59
2023-03-05T17:38:24.567Z,-0.59
2023-03-05T17:40:53.560Z,-0.58
2023-03-05T17:43:24.651Z,-0.59
2023-03-05T17:45:51.672Z,-0.61
2023-03-05T17:48:21.170Z,-0.62
2023-03-05T17:50:47.765Z,-0.61
2023-03-05T17:53:14.657Z,-0.64
2023-03-05T17:55:41.850Z,-0.68
2023-03-05T17:58:10.915Z,-0.69
2023-03-05T18:00:42.227Z,-0.68
2023-03-05T18:03:11.484Z,-0.66
2023-03-05T18:05:38.747Z,-0.63
2023-03-05T18:08:05.190Z,-0.63
2023-03-05T18:10:39.063Z,-0.63
2023-03-05T18:13:07.978Z,-0.64
2023-03-05T18:15:36.590Z,-0.67
2023-03-05T18:18:03.492Z,-0.68
2023-03-05T18:20:35.794Z,-0.70
2023-03-05T18:23:05.244Z,-0.73
2023-03-05T18:25:36.900Z,-0.73
2023-03-05T18:28:08.388Z,-0.76
2023-03-05T18:30:37.942Z,-0.77
2023-03-05T18:33:04.982Z,-0.82
2023-03-05T18:35:34.629Z,-0.87
2023-03-05T18:38:03.679Z,-0.87
2023-03-05T18:40:35.128Z,-0.88
2023-03-05T18:43:06.481Z,-0.89
2023-03-05T18:45:35.279Z,-0.89
2023-03-05T18:48:07.810Z,-0.87
2023-03-05T18:50:36.602Z,-0.86
2023-03-05T18:53:08.075Z,-0.85
2023-03-05T18:55:37.188Z,-0.86
2023-03-05T18:58:08.384Z,-0.87
2023-03-05T19:00:35.534Z,-0.86
2023-03-05T19:03:06.912Z,-0.86
2023-03-05T19:05:38.275Z,-0.86
2023-03-05T19:08:07.382Z,-0.86
2023-03-05T19:10:38.687Z,-0.87
2023-03-05T19:13:27.329Z,-0.87
2023-03-05T19:16:02.919Z,-0.89
2023-03-05T19:18:33.287Z,-0.89
2023-03-05T19:20:59.817Z,-0.90
2023-03-05T19:23:26.566Z,-0.90
2023-03-05T19:25:56.001Z,-0.92
2023-03-05T19:28:29.263Z,-0.94
2023-03-05T19:30:58.126Z,-0.96
2023-03-05T19:33:25.235Z,-1.00
2023-03-05T19:36:05.327Z,-1.03
2023-03-05T19:38:36.260Z,-1.07
2023-03-05T19:41:08.905Z,-1.10
2023-03-05T19:43:40.546Z,-1.11
2023-03-05T19:46:10.642Z,-1.15
2023-03-05T19:48:41.793Z,-1.14
2023-03-05T19:51:14.028Z,-1.14
2023-03-05T19:53:41.969Z,-1.13
2023-03-05T19:56:09.441Z,-1.12
2023-03-05T19:58:37.243Z,-1.12
2023-03-05T20:01:18.015Z,-1.12
2023-03-05T20:03:49.586Z,-1.13
2023-03-05T20:06:23.344Z,-1.15
2023-03-05T20:08:55.553Z,-1.17
2023-03-05T20:11:28.645Z,-1.18
2023-03-05T20:13:57.879Z,-1.18
2023-03-05T20:16:45.652Z,-1.18
2023-03-05T20:19:21.292Z,-1.20
2023-03-05T20:21:52.810Z,-1.22
2023-03-05T20:24:29.895Z,-1.24
2023-03-05T20:27:01.764Z,-1.27
2023-03-05T20:29:32.767Z,-1.29
2023-03-05T20:32:04.733Z,-1.31
2023-03-05T20:34:33.934Z,-1.33
2023-03-05T20:37:04.313Z,-1.35
2023-03-05T20:39:35.819Z,-1.38
2023-03-05T20:42:02.856Z,-1.41
2023-03-05T20:44:29.494Z,-1.41
2023-03-05T20:47:17.427Z,-1.41
2023-03-05T20:49:44.387Z,-1.43
2023-03-05T20:52:10.964Z,-1.43
2023-03-05T20:54:42.140Z,-1.42
2023-03-05T20:57:11.044Z,-1.43
2023-03-05T20:59:40.171Z,-1.43
2023-03-05T21:02:09.045Z,-1.42
2023-03-05T21:04:38.015Z,-1.41
2023-03-05T21:07:04.529Z,-1.39
2023-03-05T21:09:31.153Z,-1.34
2023-03-05T21:12:04.725Z,-1.18
2023-03-05T21:14:37.041Z,-0.98
2023-03-05T21:17:04.505Z,-1.02
2023-03-05T21:19:33.759Z,-1.05
2023-03-05T21:22:03.197Z,-1.08
2023-03-05T21:24:39.137Z,-1.09
2023-03-05T21:27:07.978Z,-1.13
2023-03-05T21:29:34.554Z,-1.14
2023-03-05T21:32:04.767Z,-1.18
2023-03-05T21:34:31.415Z,-1.21
2023-03-05T21:37:00.290Z,-1.24
2023-03-05T21:39:26.928Z,-1.27
2023-03-05T21:41:55.701Z,-1.30
2023-03-05T21:44:24.790Z,-1.33
2023-03-05T21:46:52.600Z,-1.36
2023-03-05T21:49:21.509Z,-1.38
2023-03-05T21:52:08.394Z,-1.38
2023-03-05T21:54:39.451Z,-1.40
2023-03-05T21:57:10.866Z,-1.42
2023-03-05T21:59:43.549Z,-1.45
2023-03-05T22:02:18.028Z,-1.46
2023-03-05T22:04:45.654Z,-1.47
2023-03-05T22:07:13.292Z,-1.47
2023-03-05T22:09:40.251Z,-1.49
2023-03-05T22:12:09.544Z,-1.51
2023-03-05T22:14:38.613Z,-1.52
2023-03-05T22:17:05.194Z,-1.53
2023-03-05T22:19:34.155Z,-1.54
2023-03-05T22:22:02.964Z,-1.56
2023-03-05T22:24:32.144Z,-1.57
2023-03-05T22:26:58.790Z,-1.59
2023-03-05T22:29:27.995Z,-1.61
2023-03-05T22:31:59.397Z,-1.64
2023-03-05T22:34:26.159Z,-1.67
2023-03-05T22:36:55.473Z,-1.68
2023-03-05T22:39:24.035Z,-1.71
2023-03-05T22:41:50.806Z,-1.75
2023-03-05T22:44:19.797Z,-1.76
2023-03-05T22:46:49.926Z,-1.78
2023-03-05T22:49:18.528Z,-1.80
2023-03-05T22:51:45.239Z,-1.82
2023-03-05T22:54:14.093Z,-1.82
2023-03-05T22:56:40.973Z,-1.84
2023-03-05T22:59:10.257Z,-1.86
2023-03-05T23:01:39.034Z,-1.87
2023-03-05T23:04:18.067Z,-1.89
2023-03-05T23:06:47.738Z,-1.93
2023-03-05T23:09:14.472Z,-1.95
2023-03-05T23:11:41.075Z,-1.98
2023-03-05T23:14:09.987Z,-1.99
2023-03-05T23:16:36.687Z,-2.01
2023-03-05T23:19:05.492Z,-2.05
2023-03-05T23:21:34.622Z,-2.08
2023-03-05T23:24:01.067Z,-2.11
2023-03-05T23:26:29.692Z,-2.12
2023-03-05T23:28:59.145Z,-2.12
2023-03-05T23:31:30.589Z,-2.13
2023-03-05T23:34:01.874Z,-2.13
2023-03-05T23:36:30.874Z,-2.13
2023-03-05T23:38:59.869Z,-2.13
2023-03-05T23:41:31.082Z,-2.12
2023-03-05T23:44:00.059Z,-2.14
2023-03-05T23:46:29.871Z,-2.17
2023-03-05T23:48:56.502Z,-2.20
2023-03-05T23:51:22.965Z,-2.23
2023-03-05T23:53:49.535Z,-2.30
2023-03-05T23:56:20.792Z,-2.35
2023-03-05T23:58:47.211Z,-2.40
